createdAt,value
2023-01-15T00:00:10.484Z,484.00
2023-01-15T00:00:40.566Z,486.00
2023-01-15T00:01:10.672Z,486.00
2023-01-15T00:01:40.760Z,484.00
2023-01-15T00:02:10.956Z,486.00
2023-01-15T00:02:40.961Z,485.00
2023-01-15T00:03:10.923Z,485.00
2023-01-15T00:03:41.039Z,488.00
2023-01-15T00:04:11.102Z,486.00
2023-01-15T00:04:41.211Z,489.00
2023-01-15T00:05:11.310Z,486.00
2023-01-15T00:05:41.376Z,482.00
2023-01-15T00:06:11.468Z,484.00
2023-01-15T00:06:41.546Z,481.00
2023-01-15T00:07:11.622Z,483.00
2023-01-15T00:07:41.702Z,483.00
2023-01-15T00:08:11.784Z,484.00
2023-01-15T00:08:41.871Z,485.00
2023-01-15T00:09:11.959Z,485.00
2023-01-15T00:09:42.045Z,487.00
2023-01-15T00:10:12.121Z,484.00
2023-01-15T00:10:42.209Z,484.00
2023-01-15T00:11:12.298Z,482.00
2023-01-15T00:11:42.386Z,483.00
2023-01-15T00:12:12.456Z,484.00
2023-01-15T00:12:42.537Z,483.00
2023-01-15T00:13:12.623Z,484.00
2023-01-15T00:13:42.709Z,486.00
2023-01-15T00:14:12.795Z,485.00
2023-01-15T00:14:42.883Z,487.00
2023-01-15T00:15:14.591Z,485.00
2023-01-15T00:15:43.057Z,484.00
2023-01-15T00:16:13.051Z,484.00
2023-01-15T00:16:43.109Z,484.00
2023-01-15T00:17:13.199Z,486.00
2023-01-15T00:17:43.325Z,486.00
2023-01-15T00:18:13.382Z,486.00
2023-01-15T00:18:43.465Z,487.00
2023-01-15T00:19:13.545Z,488.00
2023-01-15T00:19:43.641Z,492.00
2023-01-15T00:20:13.723Z,492.00
2023-01-15T00:20:43.802Z,491.00
2023-01-15T00:21:13.883Z,490.00
2023-01-15T00:21:43.967Z,488.00
2023-01-15T00:22:14.073Z,490.00
2023-01-15T00:22:44.150Z,487.00
2023-01-15T00:23:14.226Z,488.00
2023-01-15T00:23:44.311Z,488.00
2023-01-15T00:24:14.395Z,486.00
2023-01-15T00:24:44.486Z,483.00
2023-01-15T00:25:14.562Z,489.00
2023-01-15T00:25:44.645Z,488.00
2023-01-15T00:26:14.728Z,491.00
2023-01-15T00:26:44.815Z,489.00
2023-01-15T00:27:14.904Z,486.00
2023-01-15T00:27:44.984Z,488.00
2023-01-15T00:28:15.063Z,485.00
2023-01-15T00:28:45.149Z,484.00
2023-01-15T00:29:15.232Z,484.00
2023-01-15T00:29:45.325Z,484.00
2023-01-15T00:30:15.418Z,489.00
2023-01-15T00:30:45.500Z,490.00
2023-01-15T00:31:15.628Z,488.00
2023-01-15T00:31:45.698Z,487.00
2023-01-15T00:32:15.775Z,487.00
2023-01-15T00:33:23.404Z,506.00
2023-01-15T00:33:53.449Z,504.00
2023-01-15T00:34:23.490Z,499.00
2023-01-15T00:34:53.486Z,495.00
2023-01-15T00:35:23.515Z,497.00
2023-01-15T00:35:53.578Z,497.00
2023-01-15T00:36:23.601Z,497.00
2023-01-15T00:36:53.667Z,497.00
2023-01-15T00:37:23.679Z,496.00
2023-01-15T00:37:53.718Z,497.00
2023-01-15T00:38:23.745Z,499.00
2023-01-15T00:38:53.793Z,493.00
2023-01-15T00:39:23.836Z,494.00
2023-01-15T00:39:53.879Z,496.00
2023-01-15T00:40:23.917Z,498.00
2023-01-15T00:40:53.968Z,500.00
2023-01-15T00:41:24.006Z,499.00
2023-01-15T00:41:54.053Z,495.00
2023-01-15T00:42:24.104Z,492.00
2023-01-15T00:42:54.855Z,493.00
2023-01-15T00:43:24.216Z,495.00
2023-01-15T00:43:54.307Z,495.00
2023-01-15T00:44:24.387Z,494.00
2023-01-15T00:44:54.477Z,494.00
2023-01-15T00:45:24.564Z,494.00
2023-01-15T00:45:54.607Z,494.00
2023-01-15T00:46:24.602Z,494.00
2023-01-15T00:46:54.662Z,494.00
2023-01-15T00:47:24.771Z,497.00
2023-01-15T00:47:54.823Z,497.00
2023-01-15T00:48:24.907Z,499.00
2023-01-15T00:48:54.992Z,498.00
2023-01-15T00:49:25.085Z,501.00
2023-01-15T00:49:55.166Z,501.00
2023-01-15T00:50:25.262Z,502.00
2023-01-15T00:50:55.350Z,504.00
2023-01-15T00:51:25.430Z,498.00
2023-01-15T00:51:55.505Z,495.00
2023-01-15T00:52:25.604Z,495.00
2023-01-15T00:52:55.696Z,495.00
2023-01-15T00:53:25.778Z,496.00
2023-01-15T00:53:55.856Z,498.00
2023-01-15T00:54:26.020Z,498.00
2023-01-15T00:54:55.988Z,497.00
2023-01-15T00:55:26.074Z,495.00
2023-01-15T00:55:56.163Z,499.00
2023-01-15T00:56:26.230Z,502.00
2023-01-15T00:56:56.310Z,501.00
2023-01-15T00:57:26.392Z,502.00
2023-01-15T00:57:56.485Z,503.00
2023-01-15T00:58:26.565Z,499.00
2023-01-15T00:58:56.672Z,496.00
2023-01-15T00:59:26.670Z,496.00
2023-01-15T00:59:56.661Z,494.00
2023-01-15T01:00:26.746Z,495.00
2023-01-15T01:00:56.963Z,506.00
2023-01-15T01:01:27.009Z,494.00
2023-01-15T01:01:57.101Z,497.00
2023-01-15T01:02:27.022Z,492.00
2023-01-15T01:02:57.082Z,496.00
2023-01-15T01:03:27.178Z,496.00
2023-01-15T01:03:57.281Z,498.00
2023-01-15T01:04:27.379Z,499.00
2023-01-15T01:04:57.473Z,499.00
2023-01-15T01:05:27.546Z,497.00
2023-01-15T01:05:57.624Z,498.00
2023-01-15T01:06:27.761Z,496.00
2023-01-15T01:06:57.724Z,497.00
2023-01-15T01:07:27.809Z,495.00
2023-01-15T01:07:57.876Z,495.00
2023-01-15T01:08:27.966Z,495.00
2023-01-15T01:08:58.063Z,495.00
2023-01-15T01:09:28.160Z,497.00
2023-01-15T01:09:58.260Z,499.00
2023-01-15T01:10:28.345Z,497.00
2023-01-15T01:10:58.430Z,497.00
2023-01-15T01:11:28.527Z,495.00
2023-01-15T01:11:58.613Z,498.00
2023-01-15T01:12:28.698Z,500.00
2023-01-15T01:12:58.777Z,501.00
2023-01-15T01:13:28.852Z,502.00
2023-01-15T01:13:58.927Z,499.00
2023-01-15T01:14:29.057Z,502.00
2023-01-15T01:14:59.018Z,505.00
2023-01-15T01:15:29.112Z,504.00
2023-01-15T01:15:59.239Z,506.00
2023-01-15T01:16:29.248Z,505.00
2023-01-15T01:16:59.225Z,505.00
2023-01-15T01:17:29.317Z,501.00
2023-01-15T01:17:59.421Z,496.00
2023-01-15T01:18:29.493Z,503.00
2023-01-15T01:18:59.571Z,500.00
2023-01-15T01:19:29.648Z,500.00
2023-01-15T01:19:59.732Z,500.00
2023-01-15T01:20:29.820Z,498.00
2023-01-15T01:20:59.904Z,497.00
2023-01-15T01:21:29.981Z,499.00
2023-01-15T01:22:00.057Z,496.00
2023-01-15T01:22:30.171Z,492.00
2023-01-15T01:23:00.237Z,492.00
2023-01-15T01:23:30.315Z,491.00
2023-01-15T01:24:00.404Z,493.00
2023-01-15T01:24:30.493Z,494.00
2023-01-15T01:25:00.585Z,496.00
2023-01-15T01:25:30.653Z,496.00
2023-01-15T01:26:00.733Z,495.00
2023-01-15T01:26:30.846Z,494.00
2023-01-15T01:27:00.820Z,493.00
2023-01-15T01:27:30.905Z,496.00
2023-01-15T01:28:01.001Z,494.00
2023-01-15T01:28:31.083Z,492.00
2023-01-15T01:29:01.181Z,492.00
2023-01-15T01:29:31.283Z,494.00
2023-01-15T01:30:01.371Z,493.00
2023-01-15T01:30:31.443Z,496.00
2023-01-15T01:31:01.599Z,496.00
2023-01-15T01:31:31.624Z,495.00
2023-01-15T01:32:01.577Z,494.00
2023-01-15T01:32:31.662Z,495.00
2023-01-15T01:33:01.743Z,494.00
2023-01-15T01:33:31.799Z,495.00
2023-01-15T01:34:01.830Z,496.00
2023-01-15T01:34:31.889Z,496.00
2023-01-15T01:35:01.941Z,496.00
2023-01-15T01:35:31.970Z,499.00
2023-01-15T01:36:02.007Z,497.00
2023-01-15T01:36:32.067Z,495.00
2023-01-15T01:37:02.089Z,495.00
2023-01-15T01:37:32.128Z,494.00
2023-01-15T01:38:02.187Z,491.00
2023-01-15T01:38:32.207Z,488.00
2023-01-15T01:39:02.273Z,488.00
2023-01-15T01:39:32.326Z,487.00
2023-01-15T01:40:02.354Z,489.00
2023-01-15T01:40:32.412Z,489.00
2023-01-15T01:41:02.442Z,488.00
2023-01-15T01:41:32.493Z,489.00
2023-01-15T01:42:02.522Z,490.00
2023-01-15T01:42:32.568Z,491.00
2023-01-15T01:43:02.611Z,492.00
2023-01-15T01:43:32.704Z,490.00
2023-01-15T01:44:02.794Z,490.00
2023-01-15T01:44:32.907Z,490.00
2023-01-15T01:45:02.971Z,490.00
2023-01-15T01:45:33.094Z,490.00
2023-01-15T01:46:03.111Z,493.00
2023-01-15T01:46:33.169Z,493.00
2023-01-15T01:47:03.136Z,492.00
2023-01-15T01:47:33.218Z,492.00
2023-01-15T01:48:03.305Z,491.00
2023-01-15T01:48:33.397Z,492.00
2023-01-15T01:49:03.467Z,494.00
2023-01-15T01:49:33.556Z,496.00
2023-01-15T01:50:03.627Z,497.00
2023-01-15T01:50:33.717Z,496.00
2023-01-15T01:51:03.805Z,497.00
2023-01-15T01:51:33.897Z,496.00
2023-01-15T01:52:03.979Z,495.00
2023-01-15T01:52:34.062Z,494.00
2023-01-15T01:53:04.159Z,492.00
2023-01-15T01:53:34.224Z,494.00
2023-01-15T01:54:04.315Z,493.00
2023-01-15T01:54:34.739Z,491.00
2023-01-15T01:55:04.454Z,488.00
2023-01-15T01:55:34.563Z,487.00
2023-01-15T01:56:04.636Z,487.00
2023-01-15T01:56:34.738Z,488.00
2023-01-15T01:57:04.820Z,488.00
2023-01-15T01:57:34.924Z,488.00
2023-01-15T01:58:05.025Z,487.00
2023-01-15T01:58:35.092Z,485.00
2023-01-15T01:59:05.174Z,486.00
2023-01-15T01:59:35.299Z,485.00
2023-01-15T02:00:05.270Z,487.00
2023-01-15T02:00:35.394Z,488.00
2023-01-15T02:01:05.571Z,491.00
2023-01-15T02:01:35.656Z,489.00
2023-01-15T02:02:05.769Z,491.00
2023-01-15T02:02:35.745Z,492.00
2023-01-15T02:03:05.706Z,490.00
2023-01-15T02:03:35.785Z,485.00
2023-01-15T02:04:05.876Z,480.00
2023-01-15T02:04:35.973Z,482.00
2023-01-15T02:05:06.064Z,484.00
2023-01-15T02:05:36.153Z,490.00
2023-01-15T02:06:06.241Z,488.00
2023-01-15T02:06:36.379Z,486.00
2023-01-15T02:07:06.378Z,486.00
2023-01-15T02:07:36.336Z,484.00
2023-01-15T02:08:06.419Z,484.00
2023-01-15T02:08:36.506Z,484.00
2023-01-15T02:09:06.610Z,485.00
2023-01-15T02:09:36.690Z,486.00
2023-01-15T02:10:06.790Z,484.00
2023-01-15T02:10:36.862Z,485.00
2023-01-15T02:11:06.949Z,485.00
2023-01-15T02:11:37.057Z,485.00
2023-01-15T02:12:07.133Z,480.00
2023-01-15T02:12:37.214Z,482.00
2023-01-15T02:13:07.319Z,478.00
2023-01-15T02:13:37.408Z,484.00
2023-01-15T02:14:07.483Z,485.00
2023-01-15T02:14:37.585Z,485.00
2023-01-15T02:15:07.669Z,485.00
2023-01-15T02:15:37.760Z,483.00
2023-01-15T02:16:07.928Z,482.00
2023-01-15T02:16:37.927Z,480.00
2023-01-15T02:17:07.907Z,482.00
2023-01-15T02:17:37.989Z,481.00
2023-01-15T02:18:08.079Z,483.00
2023-01-15T02:18:38.157Z,482.00
2023-01-15T02:19:08.230Z,480.00
2023-01-15T02:19:38.316Z,481.00
2023-01-15T02:20:08.406Z,481.00
2023-01-15T02:20:38.542Z,485.00
2023-01-15T02:21:08.486Z,483.00
2023-01-15T02:21:38.569Z,485.00
2023-01-15T02:22:08.663Z,482.00
2023-01-15T02:22:38.750Z,486.00
2023-01-15T02:23:08.822Z,488.00
2023-01-15T02:23:38.896Z,483.00
2023-01-15T02:24:08.976Z,483.00
2023-01-15T02:24:39.086Z,485.00
2023-01-15T02:25:09.177Z,484.00
2023-01-15T02:25:39.264Z,490.00
2023-01-15T02:26:09.343Z,485.00
2023-01-15T02:26:39.469Z,489.00
2023-01-15T02:27:09.426Z,485.00
2023-01-15T02:27:39.512Z,486.00
2023-01-15T02:28:09.599Z,483.00
2023-01-15T02:28:39.695Z,485.00
2023-01-15T02:29:09.769Z,483.00
2023-01-15T02:29:39.879Z,482.00
2023-01-15T02:30:09.968Z,482.00
2023-01-15T02:30:40.040Z,485.00
2023-01-15T02:31:10.126Z,487.00
2023-01-15T02:31:40.267Z,484.00
2023-01-15T02:32:10.217Z,483.00
2023-01-15T02:32:40.302Z,480.00
2023-01-15T02:33:10.349Z,481.00
2023-01-15T02:33:40.397Z,478.00
2023-01-15T02:34:10.429Z,477.00
2023-01-15T02:34:40.481Z,482.00
2023-01-15T02:35:10.516Z,483.00
2023-01-15T02:35:40.580Z,482.00
2023-01-15T02:36:10.597Z,484.00
2023-01-15T02:36:40.659Z,487.00
2023-01-15T02:37:10.724Z,486.00
2023-01-15T02:37:40.745Z,485.00
2023-01-15T02:38:10.777Z,489.00
2023-01-15T02:38:40.829Z,486.00
2023-01-15T02:39:10.859Z,486.00
2023-01-15T02:39:40.910Z,486.00
2023-01-15T02:40:10.937Z,482.00
2023-01-15T02:40:40.984Z,484.00
2023-01-15T02:41:11.039Z,485.00
2023-01-15T02:41:41.084Z,486.00
2023-01-15T02:42:11.147Z,485.00
2023-01-15T02:42:41.185Z,489.00
2023-01-15T02:43:11.258Z,488.00
2023-01-15T02:43:41.341Z,489.00
2023-01-15T02:44:11.435Z,489.00
2023-01-15T02:44:41.531Z,489.00
2023-01-15T02:45:11.617Z,490.00
2023-01-15T02:45:41.738Z,491.00
2023-01-15T02:46:11.894Z,489.00
2023-01-15T02:46:41.853Z,486.00
2023-01-15T02:47:11.956Z,488.00
2023-01-15T02:47:42.053Z,490.00
2023-01-15T02:48:12.179Z,490.00
2023-01-15T02:48:42.235Z,491.00
2023-01-15T02:49:12.330Z,487.00
2023-01-15T02:49:42.409Z,487.00
2023-01-15T02:50:12.492Z,487.00
2023-01-15T02:50:42.575Z,488.00
2023-01-15T02:51:12.677Z,489.00
2023-01-15T02:51:42.762Z,487.00
2023-01-15T02:52:12.853Z,487.00
2023-01-15T02:52:42.836Z,486.00
2023-01-15T02:53:12.917Z,485.00
2023-01-15T02:53:43.006Z,483.00
2023-01-15T02:54:13.126Z,479.00
2023-01-15T02:54:43.198Z,483.00
2023-01-15T02:55:13.327Z,480.00
2023-01-15T02:55:43.388Z,482.00
2023-01-15T02:56:13.498Z,478.00
2023-01-15T02:56:43.555Z,480.00
2023-01-15T02:57:13.628Z,482.00
2023-01-15T02:57:43.719Z,482.00
2023-01-15T02:58:13.808Z,484.00
2023-01-15T02:58:43.902Z,483.00
2023-01-15T02:59:13.968Z,484.00
2023-01-15T02:59:44.061Z,483.00
2023-01-15T03:00:14.135Z,483.00
2023-01-15T03:00:44.304Z,484.00
2023-01-15T03:01:14.358Z,482.00
2023-01-15T03:01:44.510Z,483.00
2023-01-15T03:02:14.528Z,482.00
2023-01-15T03:02:44.494Z,482.00
2023-01-15T03:03:14.389Z,483.00
2023-01-15T03:03:44.488Z,480.00
2023-01-15T03:04:14.556Z,481.00
2023-01-15T03:04:44.636Z,481.00
2023-01-15T03:05:14.716Z,485.00
2023-01-15T03:05:44.820Z,485.00
2023-01-15T03:06:14.900Z,484.00
2023-01-15T03:06:44.983Z,482.00
2023-01-15T03:07:15.106Z,481.00
2023-01-15T03:07:45.080Z,481.00
2023-01-15T03:08:15.143Z,482.00
2023-01-15T03:08:45.231Z,487.00
2023-01-15T03:09:15.318Z,485.00
2023-01-15T03:09:45.405Z,477.00
2023-01-15T03:10:15.492Z,480.00
2023-01-15T03:10:45.588Z,482.00
2023-01-15T03:11:15.666Z,486.00
2023-01-15T03:11:45.752Z,484.00
2023-01-15T03:12:15.840Z,485.00
2023-01-15T03:12:45.924Z,485.00
2023-01-15T03:13:16.011Z,483.00
2023-01-15T03:13:46.107Z,480.00
2023-01-15T03:14:16.186Z,481.00
2023-01-15T03:14:46.279Z,477.00
2023-01-15T03:15:16.366Z,478.00
2023-01-15T03:15:46.447Z,476.00
2023-01-15T03:16:16.555Z,477.00
2023-01-15T03:16:46.657Z,477.00
2023-01-15T03:17:16.652Z,479.00
2023-01-15T03:17:46.731Z,481.00
2023-01-15T03:18:16.821Z,479.00
2023-01-15T03:18:46.896Z,482.00
2023-01-15T03:19:17.000Z,478.00
2023-01-15T03:19:47.086Z,476.00
2023-01-15T03:20:17.166Z,479.00
2023-01-15T03:20:47.244Z,478.00
2023-01-15T03:21:17.341Z,479.00
2023-01-15T03:21:47.421Z,478.00
2023-01-15T03:22:17.509Z,478.00
2023-01-15T03:22:47.617Z,478.00
2023-01-15T03:23:17.698Z,478.00
2023-01-15T03:23:47.770Z,477.00
2023-01-15T03:24:17.862Z,477.00
2023-01-15T03:24:47.948Z,480.00
2023-01-15T03:25:18.030Z,479.00
2023-01-15T03:25:48.123Z,481.00
2023-01-15T03:26:18.223Z,484.00
2023-01-15T03:26:48.335Z,483.00
2023-01-15T03:27:18.401Z,483.00
2023-01-15T03:27:48.499Z,478.00
2023-01-15T03:28:18.565Z,477.00
2023-01-15T03:28:48.661Z,479.00
2023-01-15T03:29:18.745Z,482.00
2023-01-15T03:29:48.837Z,482.00
2023-01-15T03:30:18.935Z,478.00
2023-01-15T03:30:49.078Z,486.00
2023-01-15T03:31:19.038Z,483.00
2023-01-15T03:31:49.122Z,483.00
2023-01-15T03:32:19.204Z,485.00
2023-01-15T03:32:49.289Z,484.00
2023-01-15T03:33:19.332Z,484.00
2023-01-15T03:33:49.380Z,481.00
2023-01-15T03:34:19.412Z,479.00
2023-01-15T03:34:49.474Z,483.00
2023-01-15T03:35:19.511Z,479.00
2023-01-15T03:35:49.558Z,478.00
2023-01-15T03:36:19.611Z,478.00
2023-01-15T03:36:49.656Z,474.00
2023-01-15T03:37:19.704Z,479.00
2023-01-15T03:37:49.749Z,477.00
2023-01-15T03:38:19.810Z,478.00
2023-01-15T03:38:49.847Z,478.00
2023-01-15T03:39:19.882Z,474.00
2023-01-15T03:39:49.942Z,477.00
2023-01-15T03:40:20.004Z,476.00
2023-01-15T03:40:50.044Z,475.00
2023-01-15T03:41:20.106Z,477.00
2023-01-15T03:41:50.161Z,474.00
2023-01-15T03:42:20.213Z,474.00
2023-01-15T03:42:50.265Z,475.00
2023-01-15T03:43:20.367Z,477.00
2023-01-15T03:43:50.459Z,478.00
2023-01-15T03:44:20.555Z,481.00
2023-01-15T03:44:50.635Z,481.00
2023-01-15T03:45:20.724Z,483.00
2023-01-15T03:45:50.844Z,480.00
2023-01-15T03:46:20.899Z,482.00
2023-01-15T03:46:50.865Z,482.00
2023-01-15T03:47:20.954Z,482.00
2023-01-15T03:47:51.075Z,481.00
2023-01-15T03:48:21.376Z,482.00
2023-01-15T03:48:51.224Z,481.00
2023-01-15T03:49:21.312Z,481.00
2023-01-15T03:49:51.428Z,479.00
2023-01-15T03:50:21.512Z,477.00
2023-01-15T03:50:51.608Z,478.00
2023-01-15T03:51:21.694Z,480.00
2023-01-15T03:51:51.781Z,484.00
2023-01-15T03:52:21.865Z,484.00
2023-01-15T03:52:51.942Z,483.00
2023-01-15T03:53:22.057Z,478.00
2023-01-15T03:53:52.237Z,481.00
2023-01-15T03:54:22.192Z,481.00
2023-01-15T03:54:52.270Z,474.00
2023-01-15T03:55:22.349Z,475.00
2023-01-15T03:55:52.436Z,477.00
2023-01-15T03:56:22.524Z,479.00
2023-01-15T03:56:52.611Z,481.00
2023-01-15T03:57:22.693Z,483.00
2023-01-15T03:57:52.770Z,482.00
2023-01-15T03:58:22.863Z,482.00
2023-01-15T03:58:52.946Z,480.00
2023-01-15T03:59:23.048Z,484.00
2023-01-15T03:59:53.117Z,483.00
2023-01-15T04:00:23.199Z,483.00
2023-01-15T04:00:53.285Z,478.00
2023-01-15T04:01:23.501Z,478.00
2023-01-15T04:01:53.576Z,476.00
2023-01-15T04:02:23.489Z,480.00
2023-01-15T04:02:53.581Z,480.00
2023-01-15T04:03:23.665Z,480.00
2023-01-15T04:03:53.795Z,478.00
2023-01-15T04:04:23.856Z,483.00
2023-01-15T04:04:53.814Z,482.00
2023-01-15T04:05:23.899Z,481.00
2023-01-15T04:05:53.985Z,481.00
2023-01-15T04:06:24.068Z,482.00
2023-01-15T04:06:54.154Z,481.00
2023-01-15T04:07:24.236Z,479.00
2023-01-15T04:07:54.325Z,477.00
2023-01-15T04:08:24.415Z,476.00
2023-01-15T04:08:54.496Z,477.00
2023-01-15T04:09:24.576Z,477.00
2023-01-15T04:09:54.652Z,478.00
2023-01-15T04:10:24.761Z,484.00
2023-01-15T04:10:54.847Z,483.00
2023-01-15T04:11:24.915Z,481.00
2023-01-15T04:11:54.992Z,479.00
2023-01-15T04:12:25.073Z,482.00
2023-01-15T04:12:55.164Z,480.00
2023-01-15T04:13:25.251Z,480.00
2023-01-15T04:13:55.365Z,480.00
2023-01-15T04:14:25.435Z,481.00
2023-01-15T04:14:55.516Z,476.00
2023-01-15T04:15:25.725Z,475.00
2023-01-15T04:15:55.772Z,478.00
2023-01-15T04:16:25.716Z,474.00
2023-01-15T04:16:55.801Z,472.00
2023-01-15T04:17:25.877Z,473.00
2023-01-15T04:17:55.983Z,473.00
2023-01-15T04:18:26.069Z,475.00
2023-01-15T04:18:56.144Z,473.00
2023-01-15T04:19:26.217Z,473.00
2023-01-15T04:19:56.330Z,471.00
2023-01-15T04:20:26.405Z,473.00
2023-01-15T04:20:56.517Z,474.00
2023-01-15T04:21:26.576Z,472.00
2023-01-15T04:21:56.653Z,473.00
2023-01-15T04:22:26.743Z,473.00
2023-01-15T04:22:56.845Z,475.00
2023-01-15T04:23:26.910Z,476.00
2023-01-15T04:23:56.988Z,477.00
2023-01-15T04:24:27.074Z,475.00
2023-01-15T04:24:57.164Z,474.00
2023-01-15T04:25:27.266Z,472.00
2023-01-15T04:25:57.341Z,471.00
2023-01-15T04:26:27.424Z,472.00
2023-01-15T04:26:57.557Z,474.00
2023-01-15T04:27:27.618Z,476.00
2023-01-15T04:27:57.713Z,477.00
2023-01-15T04:28:27.784Z,474.00
2023-01-15T04:28:57.870Z,475.00
2023-01-15T04:29:27.977Z,475.00
2023-01-15T04:29:58.075Z,471.00
2023-01-15T04:30:28.037Z,472.00
2023-01-15T04:30:58.230Z,475.00
2023-01-15T04:31:28.223Z,475.00
2023-01-15T04:31:58.308Z,474.00
2023-01-15T04:32:28.387Z,474.00
2023-01-15T04:32:58.464Z,471.00
2023-01-15T04:33:28.514Z,476.00
2023-01-15T04:33:58.575Z,476.00
2023-01-15T04:34:28.606Z,475.00
2023-01-15T04:34:58.648Z,475.00
2023-01-15T04:35:28.680Z,475.00
2023-01-15T04:35:58.732Z,475.00
2023-01-15T04:36:28.775Z,480.00
2023-01-15T04:36:58.816Z,475.00
2023-01-15T04:37:28.864Z,476.00
2023-01-15T04:37:58.912Z,474.00
2023-01-15T04:38:28.936Z,478.00
2023-01-15T04:38:58.999Z,480.00
2023-01-15T04:39:29.025Z,480.00
2023-01-15T04:39:59.059Z,480.00
2023-01-15T04:40:29.107Z,477.00
2023-01-15T04:40:59.153Z,479.00
2023-01-15T04:41:29.215Z,474.00
2023-01-15T04:41:59.235Z,474.00
2023-01-15T04:42:29.283Z,475.00
2023-01-15T04:42:59.340Z,479.00
2023-01-15T04:43:29.503Z,479.00
2023-01-15T04:43:59.437Z,473.00
2023-01-15T04:44:29.518Z,472.00
2023-01-15T04:44:59.604Z,471.00
2023-01-15T04:45:29.693Z,470.00
2023-01-15T04:45:59.839Z,471.00
2023-01-15T04:46:29.905Z,471.00
2023-01-15T04:46:59.857Z,474.00
2023-01-15T04:47:29.933Z,474.00
2023-01-15T04:48:00.062Z,475.00
2023-01-15T04:48:30.034Z,476.00
2023-01-15T04:49:00.124Z,475.00
2023-01-15T04:49:30.208Z,473.00
2023-01-15T04:50:00.281Z,478.00
2023-01-15T04:50:30.377Z,475.00
2023-01-15T04:51:00.464Z,474.00
2023-01-15T04:51:30.547Z,471.00
2023-01-15T04:52:00.637Z,477.00
2023-01-15T04:52:30.722Z,473.00
2023-01-15T04:53:00.726Z,472.00
2023-01-15T04:53:30.811Z,473.00
2023-01-15T04:54:00.897Z,471.00
2023-01-15T04:54:31.014Z,462.00
2023-01-15T04:55:01.080Z,468.00
2023-01-15T04:55:31.165Z,469.00
2023-01-15T04:56:01.246Z,475.00
2023-01-15T04:56:31.334Z,472.00
2023-01-15T04:57:01.410Z,473.00
2023-01-15T04:57:31.500Z,470.00
2023-01-15T04:58:01.592Z,472.00
2023-01-15T04:58:31.693Z,473.00
2023-01-15T04:59:01.781Z,473.00
2023-01-15T04:59:31.865Z,472.00
2023-01-15T05:00:01.933Z,471.00
2023-01-15T05:00:32.015Z,469.00
2023-01-15T05:01:02.269Z,472.00
2023-01-15T05:01:32.352Z,473.00
2023-01-15T05:02:05.724Z,473.00
2023-01-15T05:02:32.523Z,475.00
2023-01-15T05:03:02.418Z,474.00
2023-01-15T05:03:32.501Z,476.00
2023-01-15T05:04:02.591Z,477.00
2023-01-15T05:04:33.063Z,476.00
2023-01-15T05:05:02.783Z,476.00
2023-01-15T05:05:32.860Z,476.00
2023-01-15T05:06:02.944Z,477.00
2023-01-15T05:06:33.023Z,479.00
2023-01-15T05:07:03.124Z,477.00
2023-01-15T05:07:33.196Z,478.00
2023-01-15T05:08:03.343Z,479.00
2023-01-15T05:08:33.304Z,478.00
2023-01-15T05:09:03.392Z,479.00
2023-01-15T05:09:33.517Z,478.00
2023-01-15T05:10:03.587Z,476.00
2023-01-15T05:10:33.666Z,475.00
2023-01-15T05:11:03.757Z,479.00
2023-01-15T05:11:33.837Z,484.00
2023-01-15T05:12:03.955Z,480.00
2023-01-15T05:12:34.010Z,479.00
2023-01-15T05:13:04.091Z,479.00
2023-01-15T05:13:34.174Z,474.00
2023-01-15T05:14:04.266Z,475.00
2023-01-15T05:14:34.344Z,475.00
2023-01-15T05:15:04.430Z,477.00
2023-01-15T05:15:34.551Z,476.00
2023-01-15T05:16:04.584Z,478.00
2023-01-15T05:16:34.564Z,476.00
2023-01-15T05:17:04.624Z,477.00
2023-01-15T05:17:34.707Z,476.00
2023-01-15T05:18:04.806Z,476.00
2023-01-15T05:18:34.876Z,484.00
2023-01-15T05:19:04.965Z,487.00
2023-01-15T05:19:35.037Z,491.00
2023-01-15T05:20:05.120Z,483.00
2023-01-15T05:20:35.215Z,484.00
2023-01-15T05:21:05.299Z,488.00
2023-01-15T05:21:35.394Z,488.00
2023-01-15T05:22:05.480Z,486.00
2023-01-15T05:22:35.573Z,488.00
2023-01-15T05:23:05.638Z,488.00
2023-01-15T05:23:35.738Z,488.00
2023-01-15T05:24:05.818Z,489.00
2023-01-15T05:24:35.910Z,487.00
2023-01-15T05:25:06.004Z,484.00
2023-01-15T05:25:36.086Z,485.00
2023-01-15T05:26:06.232Z,482.00
2023-01-15T05:26:36.205Z,479.00
2023-01-15T05:27:06.266Z,479.00
2023-01-15T05:27:36.351Z,480.00
2023-01-15T05:28:06.440Z,477.00
2023-01-15T05:28:36.485Z,476.00
2023-01-15T05:29:06.572Z,478.00
2023-01-15T05:29:36.735Z,481.00
2023-01-15T05:30:06.701Z,479.00
2023-01-15T05:30:36.789Z,480.00
2023-01-15T05:31:06.978Z,480.00
2023-01-15T05:31:36.944Z,481.00
2023-01-15T05:32:09.530Z,482.00
2023-01-15T05:32:37.107Z,481.00
2023-01-15T05:33:07.174Z,480.00
2023-01-15T05:33:37.393Z,479.00
2023-01-15T05:34:07.298Z,477.00
2023-01-15T05:34:37.418Z,477.00
2023-01-15T05:35:07.445Z,476.00
2023-01-15T05:35:37.487Z,478.00
2023-01-15T05:36:07.533Z,479.00
2023-01-15T05:36:37.770Z,479.00
2023-01-15T05:37:07.637Z,480.00
2023-01-15T05:37:37.663Z,482.00
2023-01-15T05:38:07.702Z,481.00
2023-01-15T05:38:37.737Z,481.00
2023-01-15T05:39:07.775Z,478.00
2023-01-15T05:39:37.821Z,478.00
2023-01-15T05:40:07.860Z,479.00
2023-01-15T05:40:37.902Z,477.00
2023-01-15T05:41:07.946Z,477.00
2023-01-15T05:41:37.985Z,478.00
2023-01-15T05:42:08.055Z,475.00
2023-01-15T05:42:38.079Z,476.00
2023-01-15T05:43:08.159Z,477.00
2023-01-15T05:43:38.252Z,474.00
2023-01-15T05:44:08.356Z,479.00
2023-01-15T05:44:38.338Z,480.00
2023-01-15T05:45:08.422Z,476.00
2023-01-15T05:45:38.515Z,479.00
2023-01-15T05:46:08.515Z,479.00
2023-01-15T05:46:38.730Z,477.00
2023-01-15T05:47:08.664Z,475.00
2023-01-15T05:47:38.754Z,482.00
2023-01-15T05:48:08.841Z,484.00
2023-01-15T05:48:38.918Z,479.00
2023-01-15T05:49:09.007Z,478.00
2023-01-15T05:49:39.093Z,481.00
2023-01-15T05:50:09.175Z,482.00
2023-01-15T05:50:39.249Z,483.00
2023-01-15T05:51:09.352Z,482.00
2023-01-15T05:51:39.441Z,483.00
2023-01-15T05:52:09.541Z,482.00
2023-01-15T05:52:39.611Z,482.00
2023-01-15T05:53:09.700Z,481.00
2023-01-15T05:53:39.791Z,480.00
2023-01-15T05:54:09.892Z,480.00
2023-01-15T05:54:39.983Z,485.00
2023-01-15T05:55:10.064Z,480.00
2023-01-15T05:55:40.143Z,478.00
2023-01-15T05:56:10.235Z,484.00
2023-01-15T05:56:40.316Z,484.00
2023-01-15T05:57:10.411Z,481.00
2023-01-15T05:57:40.492Z,482.00
2023-01-15T05:58:10.580Z,482.00
2023-01-15T05:58:40.670Z,485.00
2023-01-15T05:59:10.748Z,486.00
2023-01-15T05:59:40.839Z,487.00
2023-01-15T06:00:10.927Z,490.00
2023-01-15T06:00:41.012Z,484.00
2023-01-15T06:01:11.137Z,484.00
2023-01-15T06:01:41.199Z,486.00
2023-01-15T06:02:11.289Z,483.00
2023-01-15T06:02:41.471Z,486.00
2023-01-15T06:03:11.442Z,485.00
2023-01-15T06:03:41.564Z,484.00
2023-01-15T06:04:11.570Z,481.00
2023-01-15T06:04:41.659Z,479.00
2023-01-15T06:05:11.745Z,479.00
2023-01-15T06:05:41.826Z,477.00
2023-01-15T06:06:11.900Z,479.00
2023-01-15T06:06:41.992Z,480.00
2023-01-15T06:07:12.075Z,485.00
2023-01-15T06:07:42.155Z,483.00
2023-01-15T06:08:12.241Z,481.00
2023-01-15T06:08:42.332Z,484.00
2023-01-15T06:09:12.434Z,486.00
2023-01-15T06:09:42.513Z,485.00
2023-01-15T06:10:12.588Z,481.00
2023-01-15T06:10:42.668Z,480.00
2023-01-15T06:11:12.756Z,479.00
2023-01-15T06:11:42.843Z,480.00
2023-01-15T06:12:12.932Z,483.00
2023-01-15T06:12:43.006Z,478.00
2023-01-15T06:13:13.084Z,480.00
2023-01-15T06:13:43.219Z,478.00
2023-01-15T06:14:13.328Z,476.00
2023-01-15T06:14:43.391Z,475.00
2023-01-15T06:15:13.476Z,477.00
2023-01-15T06:15:43.581Z,480.00